sensor_id;sensor_type;location;lat;lon;timestamp;pressure;altitude;pressure_sealevel;temperature;humidity
46946;BME280;32679;40.810;14.498;2023-11-22T00:01:07;75332.69;;;14.13;100.00
46946;BME280;32679;40.810;14.498;2023-11-22T00:03:35;75366.16;;;14.35;100.00
46946;BME280;32679;40.810;14.498;2023-11-22T00:06:00;75357.81;;;14.35;100.00
46946;BME280;32679;40.810;14.498;2023-11-22T00:08:26;75346.63;;;14.21;100.00
46946;BME280;32679;40.810;14.498;2023-11-22T00:10:52;75366.38;;;14.37;100.00
46946;BME280;32679;40.810;14.498;2023-11-22T00:13:17;75353.03;;;14.31;100.00
46946;BME280;32679;40.810;14.498;2023-11-22T00:15:43;75360.81;;;14.37;100.00
46946;BME280;32679;40.810;14.498;2023-11-22T00:18:08;75359.03;;;14.36;100.00
46946;BME280;32679;40.810;14.498;2023-11-22T00:20:33;75337.84;;;14.15;100.00
46946;BME280;32679;40.810;14.498;2023-11-22T00:22:59;75364.59;;;14.36;100.00
46946;BME280;32679;40.810;14.498;2023-11-22T00:25:25;75357.81;;;14.35;100.00
46946;BME280;32679;40.810;14.498;2023-11-22T00:27:50;75348.63;;;14.25;100.00
46946;BME280;32679;40.810;14.498;2023-11-22T00:30:15;75364.59;;;14.36;100.00
46946;BME280;32679;40.810;14.498;2023-11-22T00:32:41;75356.22;;;14.29;100.00
46946;BME280;32679;40.810;14.498;2023-11-22T00:35:07;75360.59;;;14.35;100.00
46946;BME280;32679;40.810;14.498;2023-11-22T00:37:33;75357.41;;;14.30;100.00
46946;BME280;32679;40.810;14.498;2023-11-22T00:40:03;75354.19;;;14.25;100.00
46946;BME280;32679;40.810;14.498;2023-11-22T00:42:39;75361.00;;;14.33;100.00
46946;BME280;32679;40.810;14.498;2023-11-22T00:45:07;75362.56;;;14.32;100.00
46946;BME280;32679;40.810;14.498;2023-11-22T00:47:33;75358.22;;;14.33;100.00
46946;BME280;32679;40.810;14.498;2023-11-22T00:49:59;75350.66;;;14.29;100.00
46946;BME280;32679;40.810;14.498;2023-11-22T00:52:24;75335.66;;;14.16;100.00
46946;BME280;32679;40.810;14.498;2023-11-22T00:54:53;75336.25;;;14.16;100.00
46946;BME280;32679;40.810;14.498;2023-11-22T00:57:18;75343.84;;;14.21;100.00
46946;BME280;32679;40.810;14.498;2023-11-22T00:59:44;75347.22;;;14.21;100.00
46946;BME280;32679;40.810;14.498;2023-11-22T01:02:09;75334.25;;;14.12;100.00
46946;BME280;32679;40.810;14.498;2023-11-22T01:04:35;75329.66;;;14.11;100.00
46946;BME280;32679;40.810;14.498;2023-11-22T01:07:04;75323.09;;;14.05;100.00
46946;BME280;32679;40.810;14.498;2023-11-22T01:09:30;75332.84;;;14.09;100.00
46946;BME280;32679;40.810;14.498;2023-11-22T01:11:57;75337.84;;;14.15;100.00
46946;BME280;32679;40.810;14.498;2023-11-22T01:14:22;75331.25;;;14.10;100.00
46946;BME280;32679;40.810;14.498;2023-11-22T01:16:48;75319.06;;;13.97;100.00
46946;BME280;32679;40.810;14.498;2023-11-22T01:19:13;75307.09;;;13.87;100.00
46946;BME280;32679;40.810;14.498;2023-11-22T01:27:07;75292.34;;;13.77;100.00
46946;BME280;32679;40.810;14.498;2023-11-22T01:29:33;75314.13;;;13.98;100.00
46946;BME280;32679;40.810;14.498;2023-11-22T01:32:00;75323.09;;;14.05;100.00
46946;BME280;32679;40.810;14.498;2023-11-22T01:34:26;75315.09;;;13.96;100.00
46946;BME280;32679;40.810;14.498;2023-11-22T01:36:51;75324.66;;;14.04;100.00
46946;BME280;32679;40.810;14.498;2023-11-22T01:39:16;75335.22;;;14.11;100.00
46946;BME280;32679;40.810;14.498;2023-11-22T01:41:48;75324.66;;;14.04;100.00
46946;BME280;32679;40.810;14.498;2023-11-22T01:44:15;75319.13;;;14.04;100.00
46946;BME280;32679;40.810;14.498;2023-11-22T01:49:45;75301.31;;;13.84;100.00
46946;BME280;32679;40.810;14.498;2023-11-22T01:52:30;75315.47;;;13.94;100.00
46946;BME280;32679;40.810;14.498;2023-11-22T01:54:56;75307.53;;;13.92;100.00
46946;BME280;32679;40.810;14.498;2023-11-22T01:57:22;75293.59;;;13.85;100.00
46946;BME280;32679;40.810;14.498;2023-11-22T01:59:48;75314.88;;;13.94;100.00
46946;BME280;32679;40.810;14.498;2023-11-22T02:02:14;75288.53;;;13.71;100.00
46946;BME280;32679;40.810;14.498;2023-11-22T07:48:42;75332.28;;;14.15;100.00
46946;BME280;32679;40.810;14.498;2023-11-22T07:56:43;75331.84;;;14.10;100.00
46946;BME280;32679;40.810;14.498;2023-11-22T07:59:12;75387.97;;;14.56;100.00
46946;BME280;32679;40.810;14.498;2023-11-22T08:04:21;75483.66;;;15.42;100.00
46946;BME280;32679;40.810;14.498;2023-11-22T08:06:48;75476.84;;;15.34;100.00
46946;BME280;32679;40.810;14.498;2023-11-22T08:09:14;75535.63;;;15.84;98.59
46946;BME280;32679;40.810;14.498;2023-11-22T08:11:41;75558.81;;;16.08;96.56
46946;BME280;32679;40.810;14.498;2023-11-22T08:14:07;75600.00;;;16.41;95.34
46946;BME280;32679;40.810;14.498;2023-11-22T08:16:34;75601.19;;;16.42;90.53
46946;BME280;32679;40.810;14.498;2023-11-22T08:19:04;75673.94;;;16.99;88.90
46946;BME280;32679;40.810;14.498;2023-11-22T08:21:30;75718.16;;;17.41;87.29
46946;BME280;32679;40.810;14.498;2023-11-22T08:23:56;75780.00;;;17.94;79.57
46946;BME280;32679;40.810;14.498;2023-11-22T08:26:21;75820.66;;;18.33;76.55
46946;BME280;32679;40.810;14.498;2023-11-22T08:28:46;75869.50;;;18.70;74.19
46946;BME280;32679;40.810;14.498;2023-11-22T08:31:12;75982.47;;;19.66;66.47
46946;BME280;32679;40.810;14.498;2023-11-22T08:33:38;75983.84;;;19.69;66.66
46946;BME280;32679;40.810;14.498;2023-11-22T08:36:05;76025.72;;;20.09;65.29
46946;BME280;32679;40.810;14.498;2023-11-22T08:38:31;76023.34;;;20.00;65.13
46946;BME280;32679;40.810;14.498;2023-11-22T08:41:01;75945.19;;;19.34;63.37
46946;BME280;32679;40.810;14.498;2023-11-22T08:43:26;75965.03;;;19.51;63.48
46946;BME280;32679;40.810;14.498;2023-11-22T08:45:52;75877.91;;;18.77;63.28
46946;BME280;32679;40.810;14.498;2023-11-22T08:48:17;75904.34;;;18.99;62.59
46946;BME280;32679;40.810;14.498;2023-11-22T08:50:43;75823.25;;;18.30;64.62
46946;BME280;32679;40.810;14.498;2023-11-22T08:53:13;75741.56;;;17.61;68.82
46946;BME280;32679;40.810;14.498;2023-11-22T08:55:38;75675.59;;;17.05;73.13
46946;BME280;32679;40.810;14.498;2023-11-22T08:58:04;75663.78;;;16.90;75.98
46946;BME280;32679;40.810;14.498;2023-11-22T09:00:30;75628.75;;;16.65;77.23
46946;BME280;32679;40.810;14.498;2023-11-22T09:02:57;75634.75;;;16.70;79.43
46946;BME280;32679;40.810;14.498;2023-11-22T09:05:23;75628.94;;;16.61;80.72
46946;BME280;32679;40.810;14.498;2023-11-22T09:07:48;75684.97;;;17.11;80.44
46946;BME280;32679;40.810;14.498;2023-11-22T09:10:14;75752.16;;;17.68;77.85
46946;BME280;32679;40.810;14.498;2023-11-22T09:12:41;75810.84;;;18.22;75.84
46946;BME280;32679;40.810;14.498;2023-11-22T09:15:11;75832.44;;;18.33;74.87
46946;BME280;32679;40.810;14.498;2023-11-22T09:17:38;75877.50;;;18.79;71.02
46946;BME280;32679;40.810;14.498;2023-11-22T09:20:12;75954.00;;;19.39;65.60
46946;BME280;32679;40.810;14.498;2023-11-22T09:22:45;75957.59;;;19.49;65.23
46946;BME280;32679;40.810;14.498;2023-11-22T09:25:22;76022.72;;;20.00;60.35
46946;BME280;32679;40.810;14.498;2023-11-22T09:27:49;76004.69;;;19.84;61.64
46946;BME280;32679;40.810;14.498;2023-11-22T09:30:19;76058.19;;;20.30;60.72
46946;BME280;32679;40.810;14.498;2023-11-22T09:33:10;76037.16;;;20.12;59.47
46946;BME280;32679;40.810;14.498;2023-11-22T09:35:37;76073.22;;;20.42;60.79
46946;BME280;32679;40.810;14.498;2023-11-22T09:38:05;76057.59;;;20.29;58.43
46946;BME280;32679;40.810;14.498;2023-11-22T09:40:34;76067.63;;;20.35;57.55
46946;BME280;32679;40.810;14.498;2023-11-22T09:43:01;76044.16;;;20.15;57.25
46946;BME280;32679;40.810;14.498;2023-11-22T09:45:28;75997.50;;;19.78;59.52
46946;BME280;32679;40.810;14.498;2023-11-22T09:47:57;75992.28;;;19.76;59.89
46946;BME280;32679;40.810;14.498;2023-11-22T09:53:00;76000.09;;;19.83;55.99
46946;BME280;32679;40.810;14.498;2023-11-22T09:55:28;76003.09;;;19.85;56.08
46946;BME280;32679;40.810;14.498;2023-11-22T09:57:58;76004.28;;;19.86;57.35
46946;BME280;32679;40.810;14.498;2023-11-22T10:00:26;76014.09;;;19.97;58.64
46946;BME280;32679;40.810;14.498;2023-11-22T10:02:53;76052.19;;;20.25;60.12
46946;BME280;32679;40.810;14.498;2023-11-22T10:05:19;76086.88;;;20.59;50.97
46946;BME280;32679;40.810;14.498;2023-11-22T10:07:46;76039.97;;;20.19;48.78
46946;BME280;32679;40.810;14.498;2023-11-22T10:10:14;76072.41;;;20.39;50.89
46946;BME280;32679;40.810;14.498;2023-11-22T10:12:42;76117.31;;;20.82;49.42
46946;BME280;32679;40.810;14.498;2023-11-22T10:15:15;76105.72;;;20.70;49.35
46946;BME280;32679;40.810;14.498;2023-11-22T10:17:57;76085.47;;;20.55;50.74
46946;BME280;32679;40.810;14.498;2023-11-22T10:20:43;76087.06;;;20.54;47.42
46946;BME280;32679;40.810;14.498;2023-11-22T10:23:13;76075.44;;;20.49;47.94
46946;BME280;32679;40.810;14.498;2023-11-22T10:25:45;76042.56;;;20.17;47.80
46946;BME280;32679;40.810;14.498;2023-11-22T10:28:13;75998.69;;;19.79;49.09
46946;BME280;32679;40.810;14.498;2023-11-22T10:30:39;76029.53;;;20.08;48.53
46946;BME280;32679;40.810;14.498;2023-11-22T10:33:10;76143.19;;;21.04;45.16
46946;BME280;32679;40.810;14.498;2023-11-22T10:35:45;76127.75;;;20.93;45.83
46946;BME280;32679;40.810;14.498;2023-11-22T10:38:14;76189.72;;;21.46;44.87
46946;BME280;32679;40.810;14.498;2023-11-22T10:40:40;76223.59;;;21.77;43.82
46946;BME280;32679;40.810;14.498;2023-11-22T10:43:07;76219.19;;;21.71;43.65
46946;BME280;32679;40.810;14.498;2023-11-22T10:45:36;76165.84;;;21.21;44.71
46946;BME280;32679;40.810;14.498;2023-11-22T10:48:03;76168.25;;;21.23;43.91
46946;BME280;32679;40.810;14.498;2023-11-22T10:50:28;76184.53;;;21.37;45.34
46946;BME280;32679;40.810;14.498;2023-11-22T10:52:56;76170.47;;;21.30;44.29
46946;BME280;32679;40.810;14.498;2023-11-22T10:55:26;76172.88;;;21.25;42.92
46946;BME280;32679;40.810;14.498;2023-11-22T10:57:55;76123.34;;;20.87;42.11
46946;BME280;32679;40.810;14.498;2023-11-22T11:00:22;76089.25;;;20.61;42.50
46946;BME280;32679;40.810;14.498;2023-11-22T11:02:56;76090.28;;;20.59;42.93
46946;BME280;32679;40.810;14.498;2023-11-22T11:05:30;76135.19;;;20.95;42.17
46946;BME280;32679;40.810;14.498;2023-11-22T11:08:11;76178.31;;;21.36;43.63
46946;BME280;32679;40.810;14.498;2023-11-22T11:10:42;76197.75;;;21.48;42.27
46946;BME280;32679;40.810;14.498;2023-11-22T11:13:10;76169.44;;;21.24;43.42
46946;BME280;32679;40.810;14.498;2023-11-22T11:15:39;76153.81;;;21.11;42.57
46946;BME280;32679;40.810;14.498;2023-11-22T11:18:06;76128.16;;;20.91;43.11
46946;BME280;32679;40.810;14.498;2023-11-22T11:20:37;76165.03;;;21.25;42.34
46946;BME280;32679;40.810;14.498;2023-11-22T11:23:12;76077.25;;;20.51;43.17
46946;BME280;32679;40.810;14.498;2023-11-22T11:25:39;76066.19;;;20.39;43.76
46946;BME280;32679;40.810;14.498;2023-11-22T11:28:05;76081.66;;;20.50;42.51
46946;BME280;32679;40.810;14.498;2023-11-22T11:30:47;76079.66;;;20.53;42.94
46946;BME280;32679;40.810;14.498;2023-11-22T11:33:37;76100.28;;;20.65;44.16
46946;BME280;32679;40.810;14.498;2023-11-22T11:36:02;76038.75;;;20.18;44.88
46946;BME280;32679;40.810;14.498;2023-11-22T11:38:36;76128.34;;;20.94;45.39
46946;BME280;32679;40.810;14.498;2023-11-22T11:41:08;76172.66;;;21.29;43.99
46946;BME280;32679;40.810;14.498;2023-11-22T11:43:45;76200.75;;;21.51;42.54
46946;BME280;32679;40.810;14.498;2023-11-22T11:46:11;76116.34;;;20.84;42.72
46946;BME280;32679;40.810;14.498;2023-11-22T11:48:37;76108.53;;;20.70;43.37
46946;BME280;32679;40.810;14.498;2023-11-22T11:51:02;76106.69;;;20.76;43.25
46946;BME280;32679;40.810;14.498;2023-11-22T11:53:28;76047.97;;;20.21;44.66
46946;BME280;32679;40.810;14.498;2023-11-22T11:55:57;76067.59;;;20.42;44.66
46946;BME280;32679;40.810;14.498;2023-11-22T11:58:23;76120.13;;;20.82;44.63
46946;BME280;32679;40.810;14.498;2023-11-22T12:00:51;76103.31;;;20.68;44.39
46946;BME280;32679;40.810;14.498;2023-11-22T12:03:18;76097.09;;;20.67;44.33
46946;BME280;32679;40.810;14.498;2023-11-22T12:05:46;76010.09;;;19.96;45.10
46946;BME280;32679;40.810;14.498;2023-11-22T12:08:13;75979.47;;;19.63;46.03
46946;BME280;32679;40.810;14.498;2023-11-22T12:23:38;75975.03;;;19.57;48.01
46946;BME280;32679;40.810;14.498;2023-11-22T12:26:04;75928.78;;;19.25;47.66
46946;BME280;32679;40.810;14.498;2023-11-22T12:28:30;75957.41;;;19.47;48.23
46946;BME280;32679;40.810;14.498;2023-11-22T12:31:12;76022.72;;;20.00;46.98
46946;BME280;32679;40.810;14.498;2023-11-22T12:33:40;76027.53;;;20.04;46.88
46946;BME280;32679;40.810;14.498;2023-11-22T12:36:07;76082.06;;;20.55;45.94
46946;BME280;32679;40.810;14.498;2023-11-22T12:38:35;75999.09;;;19.84;46.25
46946;BME280;32679;40.810;14.498;2023-11-22T12:41:00;75974.03;;;19.58;46.10
46946;BME280;32679;40.810;14.498;2023-11-22T12:43:28;75993.47;;;19.77;46.38
46946;BME280;32679;40.810;14.498;2023-11-22T12:46:07;76020.53;;;20.00;46.09
46946;BME280;32679;40.810;14.498;2023-11-22T12:48:34;75993.28;;;19.75;45.84
46946;BME280;32679;40.810;14.498;2023-11-22T12:51:00;75957.22;;;19.44;46.21
46946;BME280;32679;40.810;14.498;2023-11-22T12:53:26;75974.25;;;19.61;47.08
46946;BME280;32679;40.810;14.498;2023-11-22T12:55:55;75987.47;;;19.72;47.38
46946;BME280;32679;40.810;14.498;2023-11-22T12:58:25;75958.22;;;19.50;44.59
46946;BME280;32679;40.810;14.498;2023-11-22T13:00:52;75995.88;;;19.79;44.50
46946;BME280;32679;40.810;14.498;2023-11-22T13:03:24;75998.28;;;19.81;45.70
46946;BME280;32679;40.810;14.498;2023-11-22T13:05:51;76021.94;;;20.04;45.00
46946;BME280;32679;40.810;14.498;2023-11-22T13:08:20;75997.88;;;19.83;46.15
46946;BME280;32679;40.810;14.498;2023-11-22T13:10:48;76021.53;;;19.99;45.43
46946;BME280;32679;40.810;14.498;2023-11-22T13:13:22;75940.19;;;19.34;46.70
46946;BME280;32679;40.810;14.498;2023-11-22T13:15:48;75931.38;;;19.22;46.00
46946;BME280;32679;40.810;14.498;2023-11-22T13:18:15;75972.66;;;19.62;44.72
46946;BME280;32679;40.810;14.498;2023-11-22T13:20:41;75935.38;;;19.30;45.67
46946;BME280;32679;40.810;14.498;2023-11-22T13:23:08;75959.00;;;19.46;44.90
46946;BME280;32679;40.810;14.498;2023-11-22T13:25:33;75925.56;;;19.20;46.24
46946;BME280;32679;40.810;14.498;2023-11-22T13:27:59;75924.56;;;19.21;45.92
46946;BME280;32679;40.810;14.498;2023-11-22T13:30:25;75862.69;;;18.69;46.29
46946;BME280;32679;40.810;14.498;2023-11-22T13:32:54;75865.09;;;18.71;46.59
46946;BME280;32679;40.810;14.498;2023-11-22T13:38:09;75867.31;;;18.70;46.92
46946;BME280;32679;40.810;14.498;2023-11-22T13:40:39;75839.06;;;18.46;47.29
46946;BME280;32679;40.810;14.498;2023-11-22T13:58:08;75791.41;;;18.03;51.81
46946;BME280;32679;40.810;14.498;2023-11-22T14:17:17;75706.38;;;17.34;60.00
46946;BME280;32679;40.810;14.498;2023-11-22T14:22:57;75683.16;;;17.09;62.43
46946;BME280;32679;40.810;14.498;2023-11-22T14:25:22;75701.75;;;17.25;62.83
46946;BME280;32679;40.810;14.498;2023-11-22T14:27:48;75697.19;;;17.23;63.85
46946;BME280;32679;40.810;14.498;2023-11-22T14:30:17;75695.97;;;17.22;63.92
46946;BME280;32679;40.810;14.498;2023-11-22T14:32:43;75625.97;;;16.65;65.34
46946;BME280;32679;40.810;14.498;2023-11-22T14:35:09;75688.78;;;17.16;65.25
46946;BME280;32679;40.810;14.498;2023-11-22T14:37:35;75689.16;;;17.14;65.55
46946;BME280;32679;40.810;14.498;2023-11-22T14:40:03;75684.38;;;17.17;66.29
46946;BME280;32679;40.810;14.498;2023-11-22T14:42:30;75676.38;;;17.01;65.75
46946;BME280;32679;40.810;14.498;2023-11-22T14:44:56;75693.97;;;17.18;66.91
46946;BME280;32679;40.810;14.498;2023-11-22T14:47:22;75706.19;;;17.31;67.16
46946;BME280;32679;40.810;14.498;2023-11-22T14:49:52;75704.38;;;17.29;67.74
46946;BME280;32679;40.810;14.498;2023-11-22T14:52:17;75689.97;;;17.17;68.51
46946;BME280;32679;40.810;14.498;2023-11-22T14:54:44;75695.38;;;17.22;69.09
46946;BME280;32679;40.810;14.498;2023-11-22T14:57:10;75687.19;;;17.17;70.24
46946;BME280;32679;40.810;14.498;2023-11-22T14:59:40;75683.97;;;17.12;71.01
46946;BME280;32679;40.810;14.498;2023-11-22T15:02:07;75663.19;;;16.97;71.54
46946;BME280;32679;40.810;14.498;2023-11-22T15:04:34;75665.38;;;16.96;73.18
46946;BME280;32679;40.810;14.498;2023-11-22T15:07:02;75654.78;;;16.90;74.27
46946;BME280;32679;40.810;14.498;2023-11-22T15:09:28;75635.00;;;16.73;76.74
46946;BME280;32679;40.810;14.498;2023-11-22T15:11:53;75619.56;;;16.55;78.42
46946;BME280;32679;40.810;14.498;2023-11-22T15:14:20;75600.38;;;16.39;80.97
46946;BME280;32679;40.810;14.498;2023-11-22T15:16:47;75563.41;;;16.10;83.23
46946;BME280;32679;40.810;14.498;2023-11-22T15:19:13;75573.00;;;16.18;84.20
46946;BME280;32679;40.810;14.498;2023-11-22T15:21:38;75561.00;;;16.08;85.47
46946;BME280;32679;40.810;14.498;2023-11-22T15:24:04;75532.22;;;15.83;86.86
46946;BME280;32679;40.810;14.498;2023-11-22T15:26:29;75523.22;;;15.76;87.57
46946;BME280;32679;40.810;14.498;2023-11-22T15:28:55;75523.22;;;15.76;88.42
46946;BME280;32679;40.810;14.498;2023-11-22T15:31:20;75498.44;;;15.52;89.50
46946;BME280;32679;40.810;14.498;2023-11-22T15:33:48;75506.00;;;15.56;90.65
46946;BME280;32679;40.810;14.498;2023-11-22T15:36:16;75478.44;;;15.33;91.18
46946;BME280;32679;40.810;14.498;2023-11-22T15:38:42;75470.88;;;15.29;91.90
46946;BME280;32679;40.810;14.498;2023-11-22T15:41:07;75476.25;;;15.33;91.99
46946;BME280;32679;40.810;14.498;2023-11-22T15:43:36;75468.69;;;15.29;92.13
46946;BME280;32679;40.810;14.498;2023-11-22T15:46:01;75443.50;;;15.08;92.61
46946;BME280;32679;40.810;14.498;2023-11-22T15:48:27;75452.72;;;15.18;92.38
46946;BME280;32679;40.810;14.498;2023-11-22T15:50:53;75457.66;;;15.17;92.22
46946;BME280;32679;40.810;14.498;2023-11-22T15:53:19;75448.88;;;15.12;88.30
46946;BME280;32679;40.810;14.498;2023-11-22T15:55:44;75455.69;;;15.20;87.60
46946;BME280;32679;40.810;14.498;2023-11-22T15:58:10;75478.66;;;15.35;83.27
46946;BME280;32679;40.810;14.498;2023-11-22T16:08:47;75478.84;;;15.38;84.09
46946;BME280;32679;40.810;14.498;2023-11-22T16:11:12;75474.06;;;15.34;83.79
46946;BME280;32679;40.810;14.498;2023-11-22T16:53:13;75395.19;;;14.69;84.80
46946;BME280;32679;40.810;14.498;2023-11-22T16:55:42;75425.31;;;14.90;85.34
46946;BME280;32679;40.810;14.498;2023-11-22T16:58:08;75425.53;;;14.92;86.47
46946;BME280;32679;40.810;14.498;2023-11-22T17:00:33;75392.97;;;14.62;84.71
46946;BME280;32679;40.810;14.498;2023-11-22T17:02:59;75419.53;;;14.87;82.03
46946;BME280;32679;40.810;14.498;2023-11-22T17:05:29;75441.50;;;15.04;78.98
46946;BME280;32679;40.810;14.498;2023-11-22T17:07:59;75446.06;;;15.05;79.13
46946;BME280;32679;40.810;14.498;2023-11-22T17:18:23;75414.91;;;14.79;81.60
46946;BME280;32679;40.810;14.498;2023-11-22T17:26:43;75367.84;;;14.48;80.57
46946;BME280;32679;40.810;14.498;2023-11-22T17:29:09;75400.97;;;14.72;82.23
46946;BME280;32679;40.810;14.498;2023-11-22T17:31:35;75400.75;;;14.69;82.17
46946;BME280;32679;40.810;14.498;2023-11-22T17:34:01;75381.22;;;14.55;81.08
46946;BME280;32679;40.810;14.498;2023-11-22T17:36:27;75380.00;;;14.54;80.74
46946;BME280;32679;40.810;14.498;2023-11-22T17:38:52;75393.19;;;14.65;80.73
46946;BME280;32679;40.810;14.498;2023-11-22T17:41:18;75382.41;;;14.56;80.09
46946;BME280;32679;40.810;14.498;2023-11-22T17:43:44;75392.81;;;14.67;80.34
46946;BME280;32679;40.810;14.498;2023-11-22T17:49:15;75392.38;;;14.62;80.01
46946;BME280;32679;40.810;14.498;2023-11-22T17:51:59;75391.38;;;14.63;77.36
46946;BME280;32679;40.810;14.498;2023-11-22T20:14:40;75314.72;;;13.98;72.16
